Latest Weather Observations for Esperance Harbour

IDW60801

Issued at 12:02 am WST Friday 29 July 2016 (issued every 30 minutes, with the page automatically refreshed every 10 minutes)

About weather observations | Map of weather stations | Latest weather observations for WA | Other Formats
Station Details ID: 109504 Name: ESPERANCE NTC AWS Lat: -33.87 Lon: 121.90 Height: 0.0 m
Data from the previous 72 hours. | See also: Recent months for locations in Western Australia
Date/Time
WST
Temp
°C
App
Temp
°C
Dew
Point
°C
Rel
Hum
%
Delta-T
°C
Wind Press
QNH
hPa
Press
MSL
hPa
Rain since
9am
mm
Dir  Spd
km/h
Gust
km/h
Spd
kts
Gust
kts
29/12:00am 12.3 - - - - - - - - - 1020.0 1020.0 -
 
Date/Time
WST
Temp
°C
App
Temp
°C
Dew
Point
°C
Rel
Hum
%
Delta-T
°C
Wind Press
QNH
hPa
Press
MSL
hPa
Rain since
9am
mm
Dir  Spd
km/h
Gust
km/h
Spd
kts
Gust
kts
28/11:30pm 13.2 - - - - - - - - - 1020.3 1020.3 -
28/11:00pm 13.7 - - - - - - - - - 1020.5 1020.5 -
28/10:30pm 14.1 - - - - - - - - - 1020.5 1020.5 -
28/10:00pm 13.9 - - - - - - - - - 1020.7 1020.7 -
28/09:30pm 13.7 - - - - - - - - - 1021.1 1021.0 -
28/09:00pm 13.7 - - - - - - - - - 1021.0 1020.9 -
28/08:30pm 14.5 - - - - - - - - - 1020.9 1020.8 -
28/08:00pm 15.0 - - - - - - - - - 1020.9 1020.8 -
28/07:30pm 15.7 - - - - - - - - - 1020.7 1020.7 -
28/07:00pm 15.9 - - - - - - - - - 1020.7 1020.7 -
28/06:30pm 16.0 - - - - - - - - - 1020.4 1020.4 -
28/06:00pm 17.2 - - - - - - - - - 1020.2 1020.2 -
28/05:30pm 17.6 - - - - - - - - - 1020.4 1020.4 -
28/05:00pm 18.4 - - - - - - - - - 1020.0 1020.0 -
28/04:30pm 19.9 - - - - - - - - - 1020.0 1020.0 -
28/04:00pm 19.2 - - - - - - - - - 1019.8 1019.8 -
28/03:30pm 19.4 - - - - - - - - - 1019.8 1019.8 -
28/03:00pm 19.7 - - - - - - - - - 1019.6 1019.6 -
28/02:30pm 19.9 - - - - - - - - - 1019.7 1019.7 -
28/02:00pm 19.9 - - - - - - - - - 1019.8 1019.8 -
28/01:30pm 19.5 - - - - - - - - - 1020.2 1020.2 -
28/01:00pm 18.8 - - - - - - - - - 1020.5 1020.5 -
28/12:30pm 18.9 - - - - - - - - - 1020.9 1020.8 -
28/12:00pm 19.1 - - - - - - - - - 1021.1 1021.0 -
28/11:30am 18.9 - - - - - - - - - 1021.9 1021.8 -
28/11:00am 18.6 - - - - - - - - - 1022.4 1022.3 -
28/10:30am 17.1 - - - - - - - - - 1023.0 1022.9 -
28/10:00am 16.1 - - - - - - - - - 1023.1 1023.0 -
28/09:30am 15.4 - - - - - - - - - 1023.4 1023.3 -
28/09:00am 14.9 - - - - - - - - - 1023.9 1023.8 -
28/08:30am 13.6 - - - - - - - - - 1023.8 1023.7 -
28/08:00am 13.2 - - - - - - - - - 1023.6 1023.5 -
28/07:30am 12.4 - - - - - - - - - 1023.6 1023.5 -
28/07:00am 11.5 - - - - - - - - - 1023.6 1023.5 -
28/06:30am 11.2 - - - - - - - - - 1023.6 1023.5 -
28/06:00am 10.7 - - - - - - - - - 1023.2 1023.1 -
28/05:30am 10.3 - - - - - - - - - 1023.1 1023.0 -
28/05:00am 10.3 - - - - - - - - - 1022.9 1022.8 -
28/04:30am 10.7 - - - - - - - - - 1022.9 1022.8 -
28/04:00am 11.2 - - - - - - - - - 1022.9 1022.8 -
28/03:30am 11.3 - - - - - - - - - 1023.2 1023.1 -
28/03:00am 11.3 - - - - - - - - - 1023.5 1023.4 -
28/02:30am 11.4 - - - - - - - - - 1023.6 1023.5 -
28/02:00am 11.9 - - - - - - - - - 1023.9 1023.8 -
28/01:30am 12.0 - - - - - - - - - 1024.0 1023.9 -
28/01:00am 12.3 - - - - - - - - - 1023.7 1023.6 -
28/12:30am 12.4 - - - - - - - - - 1023.8 1023.7 -
28/12:00am 12.6 - - - - - - - - - 1024.7 1024.6 -
 
Date/Time
WST
Temp
°C
App
Temp
°C
Dew
Point
°C
Rel
Hum
%
Delta-T
°C
Wind Press
QNH
hPa
Press
MSL
hPa
Rain since
9am
mm
Dir  Spd
km/h
Gust
km/h
Spd
kts
Gust
kts
27/11:30pm 12.1 - - - - - - - - - 1025.0 1024.9 -
27/11:00pm 12.8 - - - - - - - - - 1025.2 1025.1 -
27/10:30pm 12.5 - - - - - - - - - 1025.4 1025.3 -
27/10:00pm 13.2 - - - - - - - - - 1025.6 1025.5 -
27/09:30pm 13.4 - - - - - - - - - 1026.0 1025.9 -
27/09:00pm 13.9 - - - - - - - - - 1026.0 1025.9 -
27/08:30pm 13.8 - - - - - - - - - 1025.9 1025.8 -
27/08:00pm 14.8 - - - - - - - - - 1026.0 1025.9 -
27/07:30pm 15.2 - - - - - - - - - 1025.9 1025.8 -
27/07:00pm 15.4 - - - - - - - - - 1026.0 1025.9 -
27/06:30pm 15.6 - - - - - - - - - 1025.9 1025.8 -
27/06:00pm 15.6 - - - - - - - - - 1025.7 1025.6 -
27/05:30pm 15.6 - - - - - - - - - 1025.4 1025.3 -
27/05:00pm 15.8 - - - - - - - - - 1025.6 1025.5 -
27/04:30pm 16.1 - - - - - - - - - 1025.7 1025.6 -
27/04:00pm 16.1 - - - - - - - - - 1025.4 1025.3 -
27/03:30pm 16.1 - - - - - - - - - 1025.7 1025.6 -
27/03:00pm 16.1 - - - - - - - - - 1025.4 1025.3 -
27/02:30pm 16.3 - - - - - - - - - 1025.5 1025.4 -
27/02:00pm 16.3 - - - - - - - - - 1025.5 1025.4 -
27/01:30pm 16.3 - - - - - - - - - 1025.8 1025.7 -
27/01:00pm 16.2 - - - - - - - - - 1026.2 1026.1 -
27/12:30pm 16.1 - - - - - - - - - 1026.1 1026.0 -
27/12:00pm 16.4 - - - - - - - - - 1026.9 1026.8 -
27/11:30am 16.1 - - - - - - - - - 1027.5 1027.4 -
27/11:00am 15.4 - - - - - - - - - 1027.6 1027.5 -
27/10:30am 15.1 - - - - - - - - - 1027.9 1027.8 -
27/10:00am 14.3 - - - - - - - - - 1028.3 1028.2 -
27/09:30am 13.5 - - - - - - - - - 1028.2 1028.1 -
27/09:00am 13.1 - - - - - - - - - 1028.1 1028.0 -
27/08:30am 12.5 - - - - - - - - - 1028.0 1027.9 -
27/08:00am 12.6 - - - - - - - - - 1028.2 1028.1 -
27/07:30am 12.5 - - - - - - - - - 1028.1 1028.0 -
27/07:00am 12.6 - - - - - - - - - 1027.9 1027.8 -
27/06:30am 12.7 - - - - - - - - - 1027.7 1027.6 -
27/06:00am 12.7 - - - - - - - - - 1027.5 1027.4 -
27/05:30am 12.6 - - - - - - - - - 1027.1 1027.0 -
27/05:00am 12.3 - - - - - - - - - 1026.8 1026.7 -
27/04:30am 12.2 - - - - - - - - - 1026.8 1026.7 -
27/04:00am 12.6 - - - - - - - - - 1026.6 1026.5 -
27/03:30am 12.8 - - - - - - - - - 1026.8 1026.7 -
27/03:00am 13.2 - - - - - - - - - 1026.8 1026.7 -
27/02:30am 13.1 - - - - - - - - - 1027.1 1027.0 -
27/02:00am 13.3 - - - - - - - - - 1027.0 1026.9 -
27/01:30am 13.2 - - - - - - - - - 1027.1 1027.0 -
27/01:00am 13.3 - - - - - - - - - 1026.9 1026.8 -
27/12:30am 13.3 - - - - - - - - - 1026.7 1026.6 -
27/12:00am 13.6 - - - - - - - - - 1026.7 1026.6 -
 
Date/Time
WST
Temp
°C
App
Temp
°C
Dew
Point
°C
Rel
Hum
%
Delta-T
°C
Wind Press
QNH
hPa
Press
MSL
hPa
Rain since
9am
mm
Dir  Spd
km/h
Gust
km/h
Spd
kts
Gust
kts
26/11:30pm 13.7 - - - - - - - - - 1026.7 1026.6 -
26/11:00pm 13.7 - - - - - - - - - 1026.9 1026.8 -
26/10:30pm 14.8 - - - - - - - - - 1027.0 1026.9 -
26/10:00pm 14.6 - - - - - - - - - 1027.0 1026.9 -
26/09:30pm 14.3 - - - - - - - - - 1027.0 1026.9 -
26/09:00pm 14.6 - - - - - - - - - 1027.0 1026.9 -
26/08:30pm 14.4 - - - - - - - - - 1026.9 1026.8 -
26/08:00pm 14.4 - - - - - - - - - 1027.0 1026.9 -
26/07:30pm 14.4 - - - - - - - - - 1026.8 1026.7 -
26/07:00pm 14.2 - - - - - - - - - 1026.3 1026.2 -
26/06:30pm 14.0 - - - - - - - - - 1026.2 1026.1 -
26/06:00pm 14.3 - - - - - - - - - 1025.9 1025.8 -
26/05:30pm 14.6 - - - - - - - - - 1025.6 1025.5 -
26/05:00pm 14.9 - - - - - - - - - 1025.3 1025.2 -
26/04:30pm 15.3 - - - - - - - - - 1025.2 1025.1 -
26/04:00pm 15.6 - - - - - - - - - 1025.2 1025.1 -
26/03:30pm 15.9 - - - - - - - - - 1025.1 1025.0 -
26/03:00pm 15.5 - - - - - - - - - 1025.0 1024.9 -
26/02:30pm 16.2 - - - - - - - - - 1024.7 1024.6 -
26/02:00pm 16.2 - - - - - - - - - 1024.5 1024.4 -
26/01:30pm 15.7 - - - - - - - - - 1024.3 1024.2 -
26/01:00pm 15.9 - - - - - - - - - 1024.1 1024.0 -
26/12:30pm 15.8 - - - - - - - - - 1024.4 1024.3 -
26/12:00pm 15.5 - - - - - - - - - 1024.7 1024.6 -
26/11:30am 15.6 - - - - - - - - - 1024.8 1024.7 -
26/11:00am 15.5 - - - - - - - - - 1025.0 1024.9 -
26/10:30am 14.8 - - - - - - - - - 1025.0 1024.9 -
26/10:00am 13.9 - - - - - - - - - 1024.9 1024.8 -
26/09:30am 13.0 - - - - - - - - - 1024.7 1024.6 -
26/09:00am 11.3 - - - - - - - - - 1024.4 1024.3 -
26/08:30am 10.8 - - - - - - - - - 1024.2 1024.1 -
26/08:00am 10.5 - - - - - - - - - 1023.9 1023.8 -
26/07:30am 10.3 - - - - - - - - - 1023.6 1023.5 -
26/07:00am 10.2 - - - - - - - - - 1023.1 1023.0 -
26/06:30am 9.7 - - - - - - - - - 1022.9 1022.8 -
26/06:00am 9.5 - - - - - - - - - 1022.8 1022.7 -
26/05:30am 9.3 - - - - - - - - - 1022.9 1022.8 -
26/05:00am 9.5 - - - - - - - - - 1022.6 1022.5 -
26/04:30am 9.7 - - - - - - - - - 1022.6 1022.5 -
26/04:00am 10.5 - - - - - - - - - 1022.6 1022.5 -
26/03:30am 10.4 - - - - - - - - - 1022.6 1022.5 -
26/03:00am 10.4 - - - - - - - - - 1022.3 1022.2 -
26/02:30am 10.5 - - - - - - - - - 1022.6 1022.5 -
26/02:00am 10.6 - - - - - - - - - 1022.9 1022.8 -
26/01:30am 10.5 - - - - - - - - - 1023.1 1023.0 -
26/01:00am 10.7 - - - - - - - - - 1023.3 1023.2 -
26/12:30am 10.9 - - - - - - - - - 1023.5 1023.4 -

Other Formats:

Comma delimited format used in spreadsheet applications
http://www.bom.gov.au/fwo/IDW60801/IDW60801.95648.axf

JavaScript Object Notation format (JSON) in row-major order
http://www.bom.gov.au/fwo/IDW60801/IDW60801.95648.json